Kinsley Ranch, Arizona
Current Conditions -  °F | °C
As of 8:54 AM on Saturday 25 Oct 2014 (Local Time) from KOLS Reporting Station
Clear Clear  
Wind Chill: 69°   Ceiling: Unl
Heat Index: 69°   Visibility: 10mi
Dew Point: 48°   Wind: 0mph
Humidity: 47%   Direction: NA
Pressure: 30.21"   Gusts: NA
Location:  31.6134°N, 110.959°W
Report Text: KOLS 251554Z AUTO 00000KT 10SM CLR 21/09 A3021 RMK AO2 SLP175 T02060089
Loading
Personal Weather Stations






























Interactive Weather Map
Tropical Storm Tracking
New forecast layout! Learn more

10-Day Weather Forecast

Advertisements
Track Severe Weather on mobile